sensor_id;sensor_type;location;lat;lon;timestamp;temperature;humidity
17146;DHT22;8688;54.444;18.444;2023-03-31T00:02:16;9.20;99.90
17146;DHT22;8688;54.444;18.444;2023-03-31T00:04:47;9.10;99.90
17146;DHT22;8688;54.444;18.444;2023-03-31T00:07:18;9.10;99.90
17146;DHT22;8688;54.444;18.444;2023-03-31T00:09:49;9.10;99.90
17146;DHT22;8688;54.444;18.444;2023-03-31T00:12:20;9.10;99.90
17146;DHT22;8688;54.444;18.444;2023-03-31T00:14:49;9.10;99.90
17146;DHT22;8688;54.444;18.444;2023-03-31T00:17:17;9.10;99.90
17146;DHT22;8688;54.444;18.444;2023-03-31T00:19:44;9.10;99.90
17146;DHT22;8688;54.444;18.444;2023-03-31T00:22:14;9.10;99.90
17146;DHT22;8688;54.444;18.444;2023-03-31T00:24:43;9.10;99.90
17146;DHT22;8688;54.444;18.444;2023-03-31T00:27:11;9.10;99.90
17146;DHT22;8688;54.444;18.444;2023-03-31T00:29:38;9.10;99.90
17146;DHT22;8688;54.444;18.444;2023-03-31T00:32:10;9.10;99.90
17146;DHT22;8688;54.444;18.444;2023-03-31T00:34:39;9.10;99.90
17146;DHT22;8688;54.444;18.444;2023-03-31T00:37:07;9.10;99.90
17146;DHT22;8688;54.444;18.444;2023-03-31T00:39:35;9.10;99.90
17146;DHT22;8688;54.444;18.444;2023-03-31T00:42:03;9.10;99.90
17146;DHT22;8688;54.444;18.444;2023-03-31T00:44:35;9.00;99.90
17146;DHT22;8688;54.444;18.444;2023-03-31T00:47:12;9.00;99.90
17146;DHT22;8688;54.444;18.444;2023-03-31T00:49:45;9.00;99.90
17146;DHT22;8688;54.444;18.444;2023-03-31T00:52:16;9.00;99.90
17146;DHT22;8688;54.444;18.444;2023-03-31T00:54:46;9.00;99.90
17146;DHT22;8688;54.444;18.444;2023-03-31T00:57:15;8.90;99.90
17146;DHT22;8688;54.444;18.444;2023-03-31T00:59:45;8.90;99.90
17146;DHT22;8688;54.444;18.444;2023-03-31T01:02:16;8.90;99.90
17146;DHT22;8688;54.444;18.444;2023-03-31T01:04:47;8.90;99.90
17146;DHT22;8688;54.444;18.444;2023-03-31T01:07:23;8.90;99.90
17146;DHT22;8688;54.444;18.444;2023-03-31T01:09:52;8.90;99.90
17146;DHT22;8688;54.444;18.444;2023-03-31T01:12:24;8.90;99.90
17146;DHT22;8688;54.444;18.444;2023-03-31T01:14:53;8.90;99.90
17146;DHT22;8688;54.444;18.444;2023-03-31T01:17:23;8.90;99.90
17146;DHT22;8688;54.444;18.444;2023-03-31T01:20:02;8.90;99.90
17146;DHT22;8688;54.444;18.444;2023-03-31T01:26:42;8.90;99.90
17146;DHT22;8688;54.444;18.444;2023-03-31T01:29:31;8.90;99.90
17146;DHT22;8688;54.444;18.444;2023-03-31T01:32:28;8.90;99.90
17146;DHT22;8688;54.444;18.444;2023-03-31T01:38:40;8.90;99.90
17146;DHT22;8688;54.444;18.444;2023-03-31T01:41:32;8.90;99.90
17146;DHT22;8688;54.444;18.444;2023-03-31T01:44:10;8.90;99.90
17146;DHT22;8688;54.444;18.444;2023-03-31T01:46:48;8.80;99.90
17146;DHT22;8688;54.444;18.444;2023-03-31T01:49:23;8.80;99.90
17146;DHT22;8688;54.444;18.444;2023-03-31T01:51:58;8.90;99.90
17146;DHT22;8688;54.444;18.444;2023-03-31T01:54:31;8.90;99.90
17146;DHT22;8688;54.444;18.444;2023-03-31T01:57:11;8.90;99.90
17146;DHT22;8688;54.444;18.444;2023-03-31T01:59:43;8.90;99.90
17146;DHT22;8688;54.444;18.444;2023-03-31T02:02:15;8.90;99.90
17146;DHT22;8688;54.444;18.444;2023-03-31T02:04:47;8.90;99.90
17146;DHT22;8688;54.444;18.444;2023-03-31T02:07:17;8.90;99.90
17146;DHT22;8688;54.444;18.444;2023-03-31T02:09:49;8.80;99.90
17146;DHT22;8688;54.444;18.444;2023-03-31T02:12:21;8.80;99.90
17146;DHT22;8688;54.444;18.444;2023-03-31T02:14:52;8.80;99.90
17146;DHT22;8688;54.444;18.444;2023-03-31T02:17:22;8.80;99.90
17146;DHT22;8688;54.444;18.444;2023-03-31T02:19:56;8.80;99.90
17146;DHT22;8688;54.444;18.444;2023-03-31T02:22:25;8.80;99.90
17146;DHT22;8688;54.444;18.444;2023-03-31T02:24:54;8.80;99.90
17146;DHT22;8688;54.444;18.444;2023-03-31T02:27:25;8.80;99.90
17146;DHT22;8688;54.444;18.444;2023-03-31T02:29:54;8.80;99.90
17146;DHT22;8688;54.444;18.444;2023-03-31T02:32:24;8.80;99.90
17146;DHT22;8688;54.444;18.444;2023-03-31T02:34:57;8.80;99.90
17146;DHT22;8688;54.444;18.444;2023-03-31T02:37:26;8.80;99.90
17146;DHT22;8688;54.444;18.444;2023-03-31T02:39:56;8.90;99.90
17146;DHT22;8688;54.444;18.444;2023-03-31T02:42:26;8.90;99.90
17146;DHT22;8688;54.444;18.444;2023-03-31T02:44:59;8.90;99.90
17146;DHT22;8688;54.444;18.444;2023-03-31T02:47:27;8.90;99.90
17146;DHT22;8688;54.444;18.444;2023-03-31T02:49:56;8.90;99.90
17146;DHT22;8688;54.444;18.444;2023-03-31T02:52:41;8.90;99.90
17146;DHT22;8688;54.444;18.444;2023-03-31T02:55:19;8.90;99.90
17146;DHT22;8688;54.444;18.444;2023-03-31T02:58:23;8.90;99.90
17146;DHT22;8688;54.444;18.444;2023-03-31T03:01:13;8.90;99.90
17146;DHT22;8688;54.444;18.444;2023-03-31T03:03:52;8.80;99.90
17146;DHT22;8688;54.444;18.444;2023-03-31T03:06:35;8.80;99.90
17146;DHT22;8688;54.444;18.444;2023-03-31T03:09:18;8.80;99.90
17146;DHT22;8688;54.444;18.444;2023-03-31T03:11:53;8.90;99.90
17146;DHT22;8688;54.444;18.444;2023-03-31T03:14:33;8.90;99.90
17146;DHT22;8688;54.444;18.444;2023-03-31T03:17:06;8.80;99.90
17146;DHT22;8688;54.444;18.444;2023-03-31T03:19:35;8.80;99.90
17146;DHT22;8688;54.444;18.444;2023-03-31T03:22:03;8.80;99.90
17146;DHT22;8688;54.444;18.444;2023-03-31T03:24:30;8.80;99.90
17146;DHT22;8688;54.444;18.444;2023-03-31T03:26:59;8.80;99.90
17146;DHT22;8688;54.444;18.444;2023-03-31T03:29:28;8.80;99.90
17146;DHT22;8688;54.444;18.444;2023-03-31T03:31:55;8.80;99.90
17146;DHT22;8688;54.444;18.444;2023-03-31T03:34:23;8.70;99.90
17146;DHT22;8688;54.444;18.444;2023-03-31T03:36:50;8.70;99.90
17146;DHT22;8688;54.444;18.444;2023-03-31T03:39:18;8.60;99.90
17146;DHT22;8688;54.444;18.444;2023-03-31T03:41:48;8.50;99.90
17146;DHT22;8688;54.444;18.444;2023-03-31T03:44:15;8.50;99.90
17146;DHT22;8688;54.444;18.444;2023-03-31T03:46:44;8.50;99.90
17146;DHT22;8688;54.444;18.444;2023-03-31T03:49:11;8.50;99.90
17146;DHT22;8688;54.444;18.444;2023-03-31T03:51:39;8.40;99.90
17146;DHT22;8688;54.444;18.444;2023-03-31T03:54:06;8.40;99.90
17146;DHT22;8688;54.444;18.444;2023-03-31T03:56:34;8.40;99.90
17146;DHT22;8688;54.444;18.444;2023-03-31T03:59:01;8.40;99.90
17146;DHT22;8688;54.444;18.444;2023-03-31T04:01:29;8.50;99.90
17146;DHT22;8688;54.444;18.444;2023-03-31T04:03:57;8.50;99.90
17146;DHT22;8688;54.444;18.444;2023-03-31T04:06:25;8.50;99.90
17146;DHT22;8688;54.444;18.444;2023-03-31T04:08:53;8.50;99.90
17146;DHT22;8688;54.444;18.444;2023-03-31T04:11:21;8.60;99.90
17146;DHT22;8688;54.444;18.444;2023-03-31T04:13:49;8.60;99.90
17146;DHT22;8688;54.444;18.444;2023-03-31T04:16:16;8.60;99.90
17146;DHT22;8688;54.444;18.444;2023-03-31T04:18:44;8.50;99.90
17146;DHT22;8688;54.444;18.444;2023-03-31T04:21:15;8.60;99.90
17146;DHT22;8688;54.444;18.444;2023-03-31T04:23:48;8.60;99.90
17146;DHT22;8688;54.444;18.444;2023-03-31T04:26:24;8.60;99.90
17146;DHT22;8688;54.444;18.444;2023-03-31T04:28:56;8.60;99.90
17146;DHT22;8688;54.444;18.444;2023-03-31T04:31:26;8.70;99.90
17146;DHT22;8688;54.444;18.444;2023-03-31T04:33:56;8.70;99.90
17146;DHT22;8688;54.444;18.444;2023-03-31T04:36:28;8.70;99.90
17146;DHT22;8688;54.444;18.444;2023-03-31T04:38:57;8.70;99.90
17146;DHT22;8688;54.444;18.444;2023-03-31T04:41:26;8.70;99.90
17146;DHT22;8688;54.444;18.444;2023-03-31T04:43:53;8.70;99.90
17146;DHT22;8688;54.444;18.444;2023-03-31T04:46:21;8.70;99.90
17146;DHT22;8688;54.444;18.444;2023-03-31T04:48:48;8.70;99.90
17146;DHT22;8688;54.444;18.444;2023-03-31T04:51:16;8.70;99.90
17146;DHT22;8688;54.444;18.444;2023-03-31T04:53:47;8.70;99.90
17146;DHT22;8688;54.444;18.444;2023-03-31T04:56:14;8.80;99.90
17146;DHT22;8688;54.444;18.444;2023-03-31T04:58:42;8.80;99.90
17146;DHT22;8688;54.444;18.444;2023-03-31T05:01:09;8.80;99.90
17146;DHT22;8688;54.444;18.444;2023-03-31T05:03:38;8.80;99.90
17146;DHT22;8688;54.444;18.444;2023-03-31T05:06:06;8.80;99.90
17146;DHT22;8688;54.444;18.444;2023-03-31T05:08:34;8.80;99.90
17146;DHT22;8688;54.444;18.444;2023-03-31T05:11:03;8.80;99.90
17146;DHT22;8688;54.444;18.444;2023-03-31T05:13:31;8.80;99.90
17146;DHT22;8688;54.444;18.444;2023-03-31T05:16:04;8.80;99.90
17146;DHT22;8688;54.444;18.444;2023-03-31T05:18:32;8.80;99.90
17146;DHT22;8688;54.444;18.444;2023-03-31T05:21:08;8.80;99.90
17146;DHT22;8688;54.444;18.444;2023-03-31T05:23:37;8.70;99.90
17146;DHT22;8688;54.444;18.444;2023-03-31T05:26:05;8.70;99.90
17146;DHT22;8688;54.444;18.444;2023-03-31T05:28:33;8.70;99.90
17146;DHT22;8688;54.444;18.444;2023-03-31T05:31:02;8.80;99.90
17146;DHT22;8688;54.444;18.444;2023-03-31T05:33:30;8.80;99.90
17146;DHT22;8688;54.444;18.444;2023-03-31T05:35:57;8.70;99.90
17146;DHT22;8688;54.444;18.444;2023-03-31T05:38:26;8.80;99.90
17146;DHT22;8688;54.444;18.444;2023-03-31T05:40:56;8.80;99.90
17146;DHT22;8688;54.444;18.444;2023-03-31T05:43:25;8.80;99.90
17146;DHT22;8688;54.444;18.444;2023-03-31T05:45:53;8.80;99.90
17146;DHT22;8688;54.444;18.444;2023-03-31T05:48:20;8.80;99.90
17146;DHT22;8688;54.444;18.444;2023-03-31T05:50:47;8.80;99.90
17146;DHT22;8688;54.444;18.444;2023-03-31T05:53:15;8.80;99.90
17146;DHT22;8688;54.444;18.444;2023-03-31T05:55:42;8.80;99.90
17146;DHT22;8688;54.444;18.444;2023-03-31T05:58:10;8.80;99.90
17146;DHT22;8688;54.444;18.444;2023-03-31T06:00:39;8.80;99.90
17146;DHT22;8688;54.444;18.444;2023-03-31T06:03:09;8.80;99.90
17146;DHT22;8688;54.444;18.444;2023-03-31T06:05:36;8.90;99.90
17146;DHT22;8688;54.444;18.444;2023-03-31T06:08:06;8.90;99.90
17146;DHT22;8688;54.444;18.444;2023-03-31T06:10:34;8.90;99.90
17146;DHT22;8688;54.444;18.444;2023-03-31T06:13:01;8.90;99.90
17146;DHT22;8688;54.444;18.444;2023-03-31T06:15:28;8.90;99.90
17146;DHT22;8688;54.444;18.444;2023-03-31T06:17:57;8.90;99.90
17146;DHT22;8688;54.444;18.444;2023-03-31T06:20:25;8.90;99.90
17146;DHT22;8688;54.444;18.444;2023-03-31T06:22:52;9.00;99.90
17146;DHT22;8688;54.444;18.444;2023-03-31T06:25:20;9.00;99.90
17146;DHT22;8688;54.444;18.444;2023-03-31T06:27:47;9.00;99.90
17146;DHT22;8688;54.444;18.444;2023-03-31T06:30:15;9.00;99.90
17146;DHT22;8688;54.444;18.444;2023-03-31T06:32:43;9.00;99.90
17146;DHT22;8688;54.444;18.444;2023-03-31T06:35:12;9.00;99.90
17146;DHT22;8688;54.444;18.444;2023-03-31T06:37:39;9.00;99.90
17146;DHT22;8688;54.444;18.444;2023-03-31T06:40:08;9.00;99.90
17146;DHT22;8688;54.444;18.444;2023-03-31T06:42:36;9.10;99.90
17146;DHT22;8688;54.444;18.444;2023-03-31T06:45:03;9.00;99.90
17146;DHT22;8688;54.444;18.444;2023-03-31T06:47:31;9.10;99.90
17146;DHT22;8688;54.444;18.444;2023-03-31T06:49:58;9.10;99.90
17146;DHT22;8688;54.444;18.444;2023-03-31T06:52:27;9.20;99.90
17146;DHT22;8688;54.444;18.444;2023-03-31T06:54:55;9.20;99.90
17146;DHT22;8688;54.444;18.444;2023-03-31T06:57:22;9.30;99.90
17146;DHT22;8688;54.444;18.444;2023-03-31T06:59:50;9.30;99.90
17146;DHT22;8688;54.444;18.444;2023-03-31T07:02:17;9.30;99.90
17146;DHT22;8688;54.444;18.444;2023-03-31T07:04:45;9.30;99.90
17146;DHT22;8688;54.444;18.444;2023-03-31T07:07:13;9.30;99.90
17146;DHT22;8688;54.444;18.444;2023-03-31T07:09:41;9.30;99.90
17146;DHT22;8688;54.444;18.444;2023-03-31T07:12:09;9.20;99.90
17146;DHT22;8688;54.444;18.444;2023-03-31T07:14:37;9.20;99.90
17146;DHT22;8688;54.444;18.444;2023-03-31T07:17:04;9.20;99.90
17146;DHT22;8688;54.444;18.444;2023-03-31T07:19:32;9.20;99.90
17146;DHT22;8688;54.444;18.444;2023-03-31T07:22:02;9.20;99.90
17146;DHT22;8688;54.444;18.444;2023-03-31T07:24:31;9.30;99.90
17146;DHT22;8688;54.444;18.444;2023-03-31T07:27:00;9.20;99.90
17146;DHT22;8688;54.444;18.444;2023-03-31T07:29:27;9.30;99.90
17146;DHT22;8688;54.444;18.444;2023-03-31T07:31:55;9.20;99.90
17146;DHT22;8688;54.444;18.444;2023-03-31T07:34:22;9.20;99.90
17146;DHT22;8688;54.444;18.444;2023-03-31T07:36:51;9.20;99.90
17146;DHT22;8688;54.444;18.444;2023-03-31T07:39:21;9.20;99.90
17146;DHT22;8688;54.444;18.444;2023-03-31T07:41:48;9.30;99.90
17146;DHT22;8688;54.444;18.444;2023-03-31T07:44:17;9.30;99.90
17146;DHT22;8688;54.444;18.444;2023-03-31T07:46:46;9.30;99.90
17146;DHT22;8688;54.444;18.444;2023-03-31T07:49:14;9.30;99.90
17146;DHT22;8688;54.444;18.444;2023-03-31T07:51:41;9.40;99.90
17146;DHT22;8688;54.444;18.444;2023-03-31T07:54:09;9.50;99.90
17146;DHT22;8688;54.444;18.444;2023-03-31T07:56:36;9.50;99.90
17146;DHT22;8688;54.444;18.444;2023-03-31T07:59:04;9.60;99.90
17146;DHT22;8688;54.444;18.444;2023-03-31T08:01:34;9.80;99.90
17146;DHT22;8688;54.444;18.444;2023-03-31T08:04:02;10.00;99.90
17146;DHT22;8688;54.444;18.444;2023-03-31T08:06:31;10.10;99.90
17146;DHT22;8688;54.444;18.444;2023-03-31T08:08:59;10.20;99.90
17146;DHT22;8688;54.444;18.444;2023-03-31T08:11:29;10.30;99.90
17146;DHT22;8688;54.444;18.444;2023-03-31T08:13:57;10.30;99.90
17146;DHT22;8688;54.444;18.444;2023-03-31T08:16:25;10.30;99.90
17146;DHT22;8688;54.444;18.444;2023-03-31T08:18:55;10.30;99.90
17146;DHT22;8688;54.444;18.444;2023-03-31T08:21:22;10.20;99.90
17146;DHT22;8688;54.444;18.444;2023-03-31T08:23:52;10.10;99.90
17146;DHT22;8688;54.444;18.444;2023-03-31T08:26:22;10.10;99.90
17146;DHT22;8688;54.444;18.444;2023-03-31T08:28:51;10.00;99.90
17146;DHT22;8688;54.444;18.444;2023-03-31T08:31:20;10.10;99.90
17146;DHT22;8688;54.444;18.444;2023-03-31T08:33:49;10.20;99.90
17146;DHT22;8688;54.444;18.444;2023-03-31T08:36:19;10.30;99.90
17146;DHT22;8688;54.444;18.444;2023-03-31T08:38:47;10.60;99.90
17146;DHT22;8688;54.444;18.444;2023-03-31T08:41:36;10.70;99.90
17146;DHT22;8688;54.444;18.444;2023-03-31T08:44:12;10.70;62.10
17146;DHT22;8688;54.444;18.444;2023-03-31T08:46:42;10.60;13.00
17146;DHT22;8688;54.444;18.444;2023-03-31T08:49:14;10.80;83.90
17146;DHT22;8688;54.444;18.444;2023-03-31T08:51:47;10.80;1.00
17146;DHT22;8688;54.444;18.444;2023-03-31T08:54:20;10.90;1.00
17146;DHT22;8688;54.444;18.444;2023-03-31T08:56:50;10.80;1.00
17146;DHT22;8688;54.444;18.444;2023-03-31T08:59:25;10.80;1.00
17146;DHT22;8688;54.444;18.444;2023-03-31T09:02:03;10.80;1.00
17146;DHT22;8688;54.444;18.444;2023-03-31T09:07:36;10.90;1.00
17146;DHT22;8688;54.444;18.444;2023-03-31T09:10:20;10.90;1.00
17146;DHT22;8688;54.444;18.444;2023-03-31T09:12:54;11.00;1.00
17146;DHT22;8688;54.444;18.444;2023-03-31T09:15:27;11.30;1.00
17146;DHT22;8688;54.444;18.444;2023-03-31T09:17:58;11.50;1.00
17146;DHT22;8688;54.444;18.444;2023-03-31T09:20:30;11.70;1.00
17146;DHT22;8688;54.444;18.444;2023-03-31T09:23:12;11.80;1.00
17146;DHT22;8688;54.444;18.444;2023-03-31T09:25:45;11.80;99.90
17146;DHT22;8688;54.444;18.444;2023-03-31T09:28:18;11.80;99.90
17146;DHT22;8688;54.444;18.444;2023-03-31T09:30:47;11.90;99.90
17146;DHT22;8688;54.444;18.444;2023-03-31T09:33:17;11.80;99.90
17146;DHT22;8688;54.444;18.444;2023-03-31T09:35:45;11.70;99.90
17146;DHT22;8688;54.444;18.444;2023-03-31T09:38:15;11.70;99.90
17146;DHT22;8688;54.444;18.444;2023-03-31T09:40:42;11.60;99.90
17146;DHT22;8688;54.444;18.444;2023-03-31T09:43:23;11.50;1.00
17146;DHT22;8688;54.444;18.444;2023-03-31T09:45:52;11.60;99.90
17146;DHT22;8688;54.444;18.444;2023-03-31T09:48:22;11.70;1.00
17146;DHT22;8688;54.444;18.444;2023-03-31T09:50:56;11.70;1.00
17146;DHT22;8688;54.444;18.444;2023-03-31T09:53:33;11.80;1.00
17146;DHT22;8688;54.444;18.444;2023-03-31T09:56:05;11.70;1.00
17146;DHT22;8688;54.444;18.444;2023-03-31T09:58:39;11.60;1.00
17146;DHT22;8688;54.444;18.444;2023-03-31T10:01:07;11.50;99.90
17146;DHT22;8688;54.444;18.444;2023-03-31T10:03:46;11.30;1.00
17146;DHT22;8688;54.444;18.444;2023-03-31T10:06:15;11.30;99.90
17146;DHT22;8688;54.444;18.444;2023-03-31T10:08:48;11.30;99.90
17146;DHT22;8688;54.444;18.444;2023-03-31T10:11:17;11.20;1.00
17146;DHT22;8688;54.444;18.444;2023-03-31T10:13:47;11.30;16.10
17146;DHT22;8688;54.444;18.444;2023-03-31T10:16:21;11.30;1.00
17146;DHT22;8688;54.444;18.444;2023-03-31T10:18:49;11.30;99.90
17146;DHT22;8688;54.444;18.444;2023-03-31T10:21:20;11.30;1.00
17146;DHT22;8688;54.444;18.444;2023-03-31T10:23:54;11.40;99.90
17146;DHT22;8688;54.444;18.444;2023-03-31T10:26:24;11.50;40.30
17146;DHT22;8688;54.444;18.444;2023-03-31T10:28:53;11.60;1.00
17146;DHT22;8688;54.444;18.444;2023-03-31T10:31:24;11.70;99.90
17146;DHT22;8688;54.444;18.444;2023-03-31T10:33:52;11.80;1.00
17146;DHT22;8688;54.444;18.444;2023-03-31T10:36:23;11.70;99.90
17146;DHT22;8688;54.444;18.444;2023-03-31T10:38:55;11.50;99.90
17146;DHT22;8688;54.444;18.444;2023-03-31T10:41:24;11.40;1.00
17146;DHT22;8688;54.444;18.444;2023-03-31T10:43:54;11.30;1.00
17146;DHT22;8688;54.444;18.444;2023-03-31T10:46:39;11.20;99.90
17146;DHT22;8688;54.444;18.444;2023-03-31T10:49:14;11.20;99.90
17146;DHT22;8688;54.444;18.444;2023-03-31T10:51:48;11.20;1.00
17146;DHT22;8688;54.444;18.444;2023-03-31T10:54:17;11.30;1.00
17146;DHT22;8688;54.444;18.444;2023-03-31T10:56:46;11.30;99.90
17146;DHT22;8688;54.444;18.444;2023-03-31T10:59:29;11.50;1.00
17146;DHT22;8688;54.444;18.444;2023-03-31T11:02:21;11.60;99.90
17146;DHT22;8688;54.444;18.444;2023-03-31T11:05:02;11.70;99.90
17146;DHT22;8688;54.444;18.444;2023-03-31T11:07:39;11.80;1.00
17146;DHT22;8688;54.444;18.444;2023-03-31T11:10:23;11.90;1.00
17146;DHT22;8688;54.444;18.444;2023-03-31T11:12:59;12.10;1.00
17146;DHT22;8688;54.444;18.444;2023-03-31T11:15:32;12.10;99.90
17146;DHT22;8688;54.444;18.444;2023-03-31T11:18:18;12.20;99.90
17146;DHT22;8688;54.444;18.444;2023-03-31T11:20:55;12.40;99.90
17146;DHT22;8688;54.444;18.444;2023-03-31T11:23:32;12.40;5.20
17146;DHT22;8688;54.444;18.444;2023-03-31T11:26:09;12.40;1.00
17146;DHT22;8688;54.444;18.444;2023-03-31T11:29:02;12.00;1.00
17146;DHT22;8688;54.444;18.444;2023-03-31T11:31:41;11.70;1.00
17146;DHT22;8688;54.444;18.444;2023-03-31T11:34:40;11.50;99.90
17146;DHT22;8688;54.444;18.444;2023-03-31T11:37:40;11.40;1.00
17146;DHT22;8688;54.444;18.444;2023-03-31T11:40:38;11.40;1.00
17146;DHT22;8688;54.444;18.444;2023-03-31T11:43:13;11.70;1.00
17146;DHT22;8688;54.444;18.444;2023-03-31T11:45:46;11.90;99.90
17146;DHT22;8688;54.444;18.444;2023-03-31T11:48:21;12.00;1.00
17146;DHT22;8688;54.444;18.444;2023-03-31T11:50:53;12.30;99.90
17146;DHT22;8688;54.444;18.444;2023-03-31T11:53:26;12.60;99.90
17146;DHT22;8688;54.444;18.444;2023-03-31T11:55:57;12.80;1.00
17146;DHT22;8688;54.444;18.444;2023-03-31T11:58:34;12.90;99.90
17146;DHT22;8688;54.444;18.444;2023-03-31T12:01:08;12.90;1.00
17146;DHT22;8688;54.444;18.444;2023-03-31T12:03:42;12.90;29.50
17146;DHT22;8688;54.444;18.444;2023-03-31T12:06:17;13.00;99.90
17146;DHT22;8688;54.444;18.444;2023-03-31T12:08:51;13.10;1.00
17146;DHT22;8688;54.444;18.444;2023-03-31T12:11:25;13.10;1.00
17146;DHT22;8688;54.444;18.444;2023-03-31T12:14:04;13.00;99.90
17146;DHT22;8688;54.444;18.444;2023-03-31T12:16:37;12.90;99.90
17146;DHT22;8688;54.444;18.444;2023-03-31T12:19:10;13.00;1.00
17146;DHT22;8688;54.444;18.444;2023-03-31T12:21:43;13.10;99.90
17146;DHT22;8688;54.444;18.444;2023-03-31T12:24:14;13.00;1.00
17146;DHT22;8688;54.444;18.444;2023-03-31T12:26:48;13.00;1.00
17146;DHT22;8688;54.444;18.444;2023-03-31T12:29:26;13.00;1.00
17146;DHT22;8688;54.444;18.444;2023-03-31T12:31:57;12.90;1.00
17146;DHT22;8688;54.444;18.444;2023-03-31T12:34:27;12.80;1.00
17146;DHT22;8688;54.444;18.444;2023-03-31T12:40:07;12.40;1.00
17146;DHT22;8688;54.444;18.444;2023-03-31T12:42:58;12.30;99.90
17146;DHT22;8688;54.444;18.444;2023-03-31T12:45:30;12.10;1.00
17146;DHT22;8688;54.444;18.444;2023-03-31T12:48:25;12.00;1.00
17146;DHT22;8688;54.444;18.444;2023-03-31T12:51:11;11.70;1.00
17146;DHT22;8688;54.444;18.444;2023-03-31T12:53:53;11.60;99.90
17146;DHT22;8688;54.444;18.444;2023-03-31T12:56:24;11.40;1.00
17146;DHT22;8688;54.444;18.444;2023-03-31T12:58:52;11.30;99.90
17146;DHT22;8688;54.444;18.444;2023-03-31T13:01:21;11.20;1.00
17146;DHT22;8688;54.444;18.444;2023-03-31T13:03:54;11.30;1.00
17146;DHT22;8688;54.444;18.444;2023-03-31T13:06:52;11.30;1.00
17146;DHT22;8688;54.444;18.444;2023-03-31T13:09:39;11.40;1.00
17146;DHT22;8688;54.444;18.444;2023-03-31T13:12:12;11.60;1.00
17146;DHT22;8688;54.444;18.444;2023-03-31T13:14:42;11.70;99.90
17146;DHT22;8688;54.444;18.444;2023-03-31T13:17:38;11.80;99.90
17146;DHT22;8688;54.444;18.444;2023-03-31T13:20:24;12.00;99.90
17146;DHT22;8688;54.444;18.444;2023-03-31T13:23:00;12.10;1.00
17146;DHT22;8688;54.444;18.444;2023-03-31T13:25:52;12.10;49.90
17146;DHT22;8688;54.444;18.444;2023-03-31T13:28:32;12.10;1.00
17146;DHT22;8688;54.444;18.444;2023-03-31T13:31:01;12.20;1.00
17146;DHT22;8688;54.444;18.444;2023-03-31T13:33:54;12.20;69.50
17146;DHT22;8688;54.444;18.444;2023-03-31T13:36:48;12.10;1.00
17146;DHT22;8688;54.444;18.444;2023-03-31T13:39:49;12.10;1.00
17146;DHT22;8688;54.444;18.444;2023-03-31T13:42:31;12.10;99.00
17146;DHT22;8688;54.444;18.444;2023-03-31T13:45:14;12.20;1.00
17146;DHT22;8688;54.444;18.444;2023-03-31T13:48:03;12.30;1.00
17146;DHT22;8688;54.444;18.444;2023-03-31T13:50:52;12.60;1.00
17146;DHT22;8688;54.444;18.444;2023-03-31T13:53:44;12.40;37.10
17146;DHT22;8688;54.444;18.444;2023-03-31T13:56:39;12.30;99.90
17146;DHT22;8688;54.444;18.444;2023-03-31T13:59:31;12.10;1.00
17146;DHT22;8688;54.444;18.444;2023-03-31T14:02:32;12.20;1.00
17146;DHT22;8688;54.444;18.444;2023-03-31T14:05:24;12.30;1.00
17146;DHT22;8688;54.444;18.444;2023-03-31T14:07:57;12.40;1.00
17146;DHT22;8688;54.444;18.444;2023-03-31T14:10:29;12.30;99.90
17146;DHT22;8688;54.444;18.444;2023-03-31T14:13:08;12.20;99.90
17146;DHT22;8688;54.444;18.444;2023-03-31T14:15:39;12.40;1.00
17146;DHT22;8688;54.444;18.444;2023-03-31T14:18:13;12.50;99.90
17146;DHT22;8688;54.444;18.444;2023-03-31T14:20:57;12.80;99.90
17146;DHT22;8688;54.444;18.444;2023-03-31T14:23:45;12.90;30.20
17146;DHT22;8688;54.444;18.444;2023-03-31T14:26:24;12.90;1.00
17146;DHT22;8688;54.444;18.444;2023-03-31T14:29:04;12.90;1.00
17146;DHT22;8688;54.444;18.444;2023-03-31T14:31:40;12.80;1.00
17146;DHT22;8688;54.444;18.444;2023-03-31T14:37:11;12.60;1.00
17146;DHT22;8688;54.444;18.444;2023-03-31T14:39:45;12.60;1.00
17146;DHT22;8688;54.444;18.444;2023-03-31T14:42:15;12.60;1.00
17146;DHT22;8688;54.444;18.444;2023-03-31T14:44:44;12.60;1.00
17146;DHT22;8688;54.444;18.444;2023-03-31T14:47:19;12.70;99.90
17146;DHT22;8688;54.444;18.444;2023-03-31T14:49:47;12.80;99.90
17146;DHT22;8688;54.444;18.444;2023-03-31T14:52:29;12.80;99.90
17146;DHT22;8688;54.444;18.444;2023-03-31T14:54:58;12.70;1.00
17146;DHT22;8688;54.444;18.444;2023-03-31T14:57:30;12.50;1.00
17146;DHT22;8688;54.444;18.444;2023-03-31T15:00:00;12.20;1.00
17146;DHT22;8688;54.444;18.444;2023-03-31T15:02:34;12.20;1.00
17146;DHT22;8688;54.444;18.444;2023-03-31T15:05:04;12.10;99.90
17146;DHT22;8688;54.444;18.444;2023-03-31T15:07:35;11.90;1.00
17146;DHT22;8688;54.444;18.444;2023-03-31T15:10:11;11.90;15.20
17146;DHT22;8688;54.444;18.444;2023-03-31T15:12:44;11.70;1.00
17146;DHT22;8688;54.444;18.444;2023-03-31T15:15:13;11.50;1.00
17146;DHT22;8688;54.444;18.444;2023-03-31T15:17:42;11.40;1.00
17146;DHT22;8688;54.444;18.444;2023-03-31T15:20:30;11.20;1.00
17146;DHT22;8688;54.444;18.444;2023-03-31T15:23:21;10.90;32.90
17146;DHT22;8688;54.444;18.444;2023-03-31T15:26:05;10.90;99.90
17146;DHT22;8688;54.444;18.444;2023-03-31T15:28:41;10.70;99.90
17146;DHT22;8688;54.444;18.444;2023-03-31T15:31:13;10.60;99.90
17146;DHT22;8688;54.444;18.444;2023-03-31T15:33:41;10.40;99.90
17146;DHT22;8688;54.444;18.444;2023-03-31T15:36:15;10.20;1.00
17146;DHT22;8688;54.444;18.444;2023-03-31T15:38:58;10.00;1.00
17146;DHT22;8688;54.444;18.444;2023-03-31T15:41:32;9.90;1.00
17146;DHT22;8688;54.444;18.444;2023-03-31T15:44:05;9.70;1.00
17146;DHT22;8688;54.444;18.444;2023-03-31T15:46:59;9.70;62.10
17146;DHT22;8688;54.444;18.444;2023-03-31T15:49:31;9.70;99.90
17146;DHT22;8688;54.444;18.444;2023-03-31T15:52:02;9.80;99.90
17146;DHT22;8688;54.444;18.444;2023-03-31T15:54:36;9.70;99.90
17146;DHT22;8688;54.444;18.444;2023-03-31T15:57:29;9.80;99.90
17146;DHT22;8688;54.444;18.444;2023-03-31T16:00:14;9.70;99.90
17146;DHT22;8688;54.444;18.444;2023-03-31T16:03:17;9.60;99.90
17146;DHT22;8688;54.444;18.444;2023-03-31T16:05:59;9.50;99.90
17146;DHT22;8688;54.444;18.444;2023-03-31T16:08:39;9.60;99.90
17146;DHT22;8688;54.444;18.444;2023-03-31T16:11:25;9.60;99.90
17146;DHT22;8688;54.444;18.444;2023-03-31T16:14:14;9.60;99.90
17146;DHT22;8688;54.444;18.444;2023-03-31T16:17:01;9.70;99.90
17146;DHT22;8688;54.444;18.444;2023-03-31T16:19:39;9.60;99.90
17146;DHT22;8688;54.444;18.444;2023-03-31T16:22:12;9.50;99.90
17146;DHT22;8688;54.444;18.444;2023-03-31T16:24:40;9.40;99.90
17146;DHT22;8688;54.444;18.444;2023-03-31T16:27:08;9.30;99.90
17146;DHT22;8688;54.444;18.444;2023-03-31T16:29:38;9.30;99.90
17146;DHT22;8688;54.444;18.444;2023-03-31T16:32:08;9.20;99.90
17146;DHT22;8688;54.444;18.444;2023-03-31T16:34:51;9.10;99.90
17146;DHT22;8688;54.444;18.444;2023-03-31T16:37:18;9.20;99.90
17146;DHT22;8688;54.444;18.444;2023-03-31T16:39:46;9.30;99.90